Time;durP1;ratioP1;P1;durP2;ratioP2;P2;SDS_P1;SDS_P2;PMS_P1;PMS_P2;Temp;Humidity;BMP_temperature;BMP_pressure;BME280_temperature;BME280_humidity;BME280_pressure;Samples;Min_cycle;Max_cycle;Signal;HPM_P1;HPM_P2
2022/02/18 00:02:05;;;;;;;0.70;0.70;;;10.90;97.80;;;;;;4973528;28;20395;-72
2022/02/18 00:04:31;;;;;;;0.40;0.20;;;10.90;98.10;;;;;;4991315;28;20383;-72
2022/02/18 00:06:57;;;;;;;0.40;0.30;;;10.90;98.40;;;;;;4991775;28;20434;-72
2022/02/18 00:09:23;;;;;;;0.40;0.40;;;11.00;98.20;;;;;;4991409;28;20398;-72
2022/02/18 00:11:48;;;;;;;0.40;0.20;;;10.90;98.40;;;;;;4991555;28;20410;-72
2022/02/18 00:14:14;;;;;;;0.40;0.27;;;10.90;98.60;;;;;;4991639;28;20386;-72
2022/02/18 00:16:40;;;;;;;0.40;0.30;;;10.90;98.80;;;;;;4991755;28;20441;-72
2022/02/18 00:19:05;;;;;;;0.40;0.30;;;11.00;98.80;;;;;;4990168;28;20426;-72
2022/02/18 00:21:31;;;;;;;0.40;0.20;;;11.00;99.30;;;;;;4971077;28;20430;-73
2022/02/18 00:23:57;;;;;;;0.60;0.60;;;11.00;99.10;;;;;;4990429;28;20816;-72
2022/02/18 00:26:23;;;;;;;0.40;0.20;;;10.90;99.40;;;;;;4972814;28;20474;-72
2022/02/18 00:28:49;;;;;;;0.40;0.20;;;11.00;99.60;;;;;;4991309;28;20771;-72
2022/02/18 00:31:16;;;;;;;0.40;0.20;;;11.00;99.60;;;;;;4991140;28;20401;-72
2022/02/18 00:33:41;;;;;;;0.40;0.20;;;10.90;99.30;;;;;;4972731;28;20406;-72
2022/02/18 00:36:07;;;;;;;0.40;0.20;;;11.00;99.60;;;;;;4973830;28;20405;-72
2022/02/18 00:38:33;;;;;;;0.40;0.20;;;10.90;99.50;;;;;;4991080;28;20522;-72
2022/02/18 00:40:58;;;;;;;1.10;1.00;;;10.90;99.40;;;;;;4974186;28;20448;-72
2022/02/18 00:43:24;;;;;;;0.40;0.20;;;11.00;99.60;;;;;;4991270;28;20398;-72
2022/02/18 00:45:50;;;;;;;0.40;0.20;;;11.00;99.40;;;;;;4990834;28;20771;-72
2022/02/18 00:48:15;;;;;;;0.40;0.30;;;10.90;99.70;;;;;;4991323;28;20386;-71
2022/02/18 00:50:41;;;;;;;0.40;0.40;;;10.90;99.60;;;;;;4990610;28;20464;-72
2022/02/18 00:53:07;;;;;;;0.40;0.30;;;10.80;99.70;;;;;;4991685;28;20386;-72
2022/02/18 00:55:33;;;;;;;0.40;0.20;;;10.80;99.70;;;;;;4991155;28;20827;-72
2022/02/18 00:57:59;;;;;;;0.40;0.20;;;10.80;99.40;;;;;;4990640;28;20545;-72
2022/02/18 01:00:25;;;;;;;0.40;0.20;;;10.90;99.60;;;;;;4991707;28;20536;-73
2022/02/18 01:02:51;;;;;;;0.40;0.20;;;10.80;99.60;;;;;;4990594;28;20441;-70
2022/02/18 01:05:16;;;;;;;0.40;0.30;;;10.80;99.60;;;;;;4973907;28;20394;-72
2022/02/18 01:07:43;;;;;;;0.40;0.20;;;10.80;99.80;;;;;;4991363;28;20433;-72
2022/02/18 01:10:10;;;;;;;0.40;0.25;;;10.80;99.90;;;;;;4989933;28;20798;-72
2022/02/18 01:12:36;;;;;;;0.40;0.38;;;10.70;99.90;;;;;;4991460;28;20462;-72
2022/02/18 01:15:02;;;;;;;0.70;0.70;;;10.80;99.90;;;;;;4990251;28;20463;-72
2022/02/18 01:17:28;;;;;;;0.50;0.50;;;10.80;99.80;;;;;;4973650;28;20489;-72
2022/02/18 01:19:54;;;;;;;0.40;0.20;;;10.80;99.90;;;;;;4991455;28;20390;-72
2022/02/18 01:22:20;;;;;;;0.40;0.20;;;10.80;99.80;;;;;;4990385;28;20405;-72
2022/02/18 01:24:46;;;;;;;0.40;0.20;;;10.80;99.50;;;;;;4990710;28;20390;-71
2022/02/18 01:27:12;;;;;;;0.40;0.20;;;10.80;99.80;;;;;;4989715;28;20418;-72
2022/02/18 01:29:41;;;;;;;0.40;0.20;;;10.70;99.90;;;;;;4990805;28;20469;-72
2022/02/18 01:32:09;;;;;;;0.40;0.20;;;10.80;99.90;;;;;;4973350;28;20448;-72
2022/02/18 01:34:35;;;;;;;0.40;0.30;;;10.70;99.90;;;;;;4973717;28;20448;-72
2022/02/18 01:37:01;;;;;;;1.30;1.20;;;10.80;99.90;;;;;;4957930;28;20516;-73
2022/02/18 01:39:26;;;;;;;0.40;0.20;;;10.70;99.80;;;;;;4973303;28;20864;-73
2022/02/18 01:41:52;;;;;;;0.40;0.28;;;10.70;99.90;;;;;;4990391;28;20390;-72
2022/02/18 01:44:39;;;;;;;7.40;0.50;;;10.70;99.60;;;;;;4972523;28;20477;-72
2022/02/18 01:47:07;;;;;;;0.40;0.20;;;10.80;99.50;;;;;;4990860;28;20756;-72
2022/02/18 01:49:32;;;;;;;0.40;0.20;;;10.80;99.40;;;;;;4989798;28;20943;-72
2022/02/18 01:51:59;;;;;;;0.40;0.20;;;10.70;99.50;;;;;;4990495;28;20485;-72
2022/02/18 01:54:25;;;;;;;0.40;0.20;;;10.70;99.70;;;;;;4972336;28;20410;-72
2022/02/18 01:56:51;;;;;;;0.40;0.25;;;10.70;99.40;;;;;;4990544;28;20414;-72
2022/02/18 01:59:17;;;;;;;0.40;0.20;;;10.70;99.30;;;;;;4990318;28;20771;-72
2022/02/18 02:01:43;;;;;;;1.10;0.50;;;10.70;99.10;;;;;;4989664;28;20472;-72
2022/02/18 02:04:08;;;;;;;0.40;0.30;;;10.70;99.10;;;;;;4990884;28;20402;-73
2022/02/18 02:06:34;;;;;;;0.40;0.30;;;10.70;98.90;;;;;;4989887;28;20469;-72
2022/02/18 02:09:00;;;;;;;0.40;0.20;;;10.70;98.80;;;;;;4972914;28;20541;-72
2022/02/18 02:11:26;;;;;;;0.40;0.28;;;10.70;98.60;;;;;;4990499;28;20486;-72
2022/02/18 02:13:51;;;;;;;1.30;0.80;;;10.70;98.70;;;;;;4989541;28;20385;-72
2022/02/18 02:16:17;;;;;;;0.40;0.20;;;10.80;98.10;;;;;;4990184;28;20390;-72
2022/02/18 02:18:46;;;;;;;0.40;0.20;;;10.70;98.20;;;;;;4989762;28;20393;-72
2022/02/18 02:21:13;;;;;;;0.40;0.20;;;10.70;98.30;;;;;;4990337;28;20513;-72
2022/02/18 02:23:39;;;;;;;2.30;0.30;;;10.80;98.50;;;;;;4989795;28;20378;-72
2022/02/18 02:26:11;;;;;;;0.40;0.20;;;10.70;98.60;;;;;;4990914;28;20383;-72
2022/02/18 02:28:38;;;;;;;0.40;0.20;;;10.80;98.30;;;;;;4990745;28;20383;-72
2022/02/18 02:31:04;;;;;;;0.40;0.20;;;10.70;98.40;;;;;;4990394;28;20401;-72
2022/02/18 02:33:29;;;;;;;0.40;0.20;;;10.90;98.20;;;;;;4990527;28;20395;-72
2022/02/18 02:35:55;;;;;;;0.40;0.20;;;10.80;98.20;;;;;;4992376;28;20461;-72
2022/02/18 02:38:21;;;;;;;0.40;0.20;;;10.80;98.50;;;;;;4993956;28;20473;-70
2022/02/18 02:40:47;;;;;;;3.50;1.00;;;10.80;98.70;;;;;;4993467;28;20401;-71
2022/02/18 02:43:13;;;;;;;0.40;0.30;;;10.80;98.30;;;;;;4993381;28;20445;-73
2022/02/18 02:45:38;;;;;;;0.50;0.50;;;10.80;98.60;;;;;;4993888;28;20386;-71
2022/02/18 02:48:05;;;;;;;0.70;0.38;;;10.70;98.80;;;;;;4975602;28;20720;-73
2022/02/18 02:50:31;;;;;;;0.40;0.20;;;10.80;99.00;;;;;;4993342;28;20402;-71
2022/02/18 02:52:56;;;;;;;0.40;0.20;;;10.90;99.50;;;;;;4993380;28;20389;-72
2022/02/18 02:55:22;;;;;;;0.40;0.30;;;10.90;99.80;;;;;;4993727;28;20391;-72
2022/02/18 02:57:48;;;;;;;0.40;0.20;;;11.00;99.90;;;;;;4993511;28;20501;-71
2022/02/18 03:00:15;;;;;;;0.40;0.28;;;11.00;99.90;;;;;;4992442;28;20918;-71
2022/02/18 03:02:42;;;;;;;0.40;0.30;;;10.90;99.90;;;;;;4976154;28;20464;-72
2022/02/18 03:05:08;;;;;;;0.40;0.20;;;11.00;99.90;;;;;;4992475;28;20434;-72
2022/02/18 03:07:34;;;;;;;0.40;0.20;;;11.00;99.90;;;;;;4993514;28;20457;-72
2022/02/18 03:10:00;;;;;;;0.70;0.50;;;11.00;99.90;;;;;;4993171;28;20379;-72
2022/02/18 03:12:26;;;;;;;0.50;0.50;;;11.00;99.90;;;;;;4975158;28;20575;-73
2022/02/18 03:14:52;;;;;;;0.40;0.20;;;11.00;99.90;;;;;;4993323;28;20437;-72
2022/02/18 03:17:18;;;;;;;0.40;0.20;;;11.00;99.90;;;;;;4992747;28;20463;-73
2022/02/18 03:19:44;;;;;;;0.40;0.20;;;11.00;99.90;;;;;;4975719;28;20402;-72
2022/02/18 03:22:10;;;;;;;0.40;0.20;;;11.00;99.90;;;;;;4992834;28;20434;-72
2022/02/18 03:24:36;;;;;;;0.40;0.30;;;11.00;99.90;;;;;;4992529;28;20485;-72
2022/02/18 03:27:02;;;;;;;0.40;0.20;;;11.00;99.90;;;;;;4993158;28;20935;-72
2022/02/18 03:29:28;;;;;;;0.50;0.50;;;10.90;99.90;;;;;;4992112;28;20422;-72
2022/02/18 03:31:53;;;;;;;0.40;0.20;;;10.80;99.90;;;;;;4975557;28;20418;-72
2022/02/18 03:34:20;;;;;;;0.40;0.30;;;10.90;99.90;;;;;;4959118;28;20496;-72
2022/02/18 03:36:46;;;;;;;0.40;0.20;;;10.90;99.90;;;;;;4959038;28;20423;-72
2022/02/18 03:39:11;;;;;;;0.40;0.20;;;10.90;99.90;;;;;;4992553;28;20393;-72
2022/02/18 03:41:37;;;;;;;0.50;0.50;;;10.90;99.90;;;;;;4974367;28;20394;-72
2022/02/18 03:44:06;;;;;;;0.40;0.20;;;10.90;99.90;;;;;;4992550;28;20394;-72
2022/02/18 03:46:33;;;;;;;0.40;0.30;;;10.80;99.90;;;;;;4991076;28;20721;-72
2022/02/18 03:48:59;;;;;;;0.40;0.30;;;10.70;99.90;;;;;;4975125;28;20763;-72
2022/02/18 03:51:25;;;;;;;0.40;0.20;;;10.90;99.90;;;;;;4974820;28;20394;-72
2022/02/18 03:53:51;;;;;;;0.40;0.20;;;10.90;99.90;;;;;;4991819;28;20399;-72
2022/02/18 03:56:18;;;;;;;0.60;0.60;;;11.00;99.90;;;;;;4991964;28;20387;-72
2022/02/18 03:58:43;;;;;;;0.40;0.20;;;11.00;99.90;;;;;;4958163;28;20417;-72
2022/02/18 04:01:09;;;;;;;0.40;0.20;;;11.00;99.90;;;;;;4992182;28;20398;-72
2022/02/18 04:03:35;;;;;;;0.40;0.20;;;11.20;99.90;;;;;;4991993;28;20429;-72
2022/02/18 04:06:01;;;;;;;0.40;0.20;;;11.30;99.90;;;;;;4991523;28;20519;-72
2022/02/18 04:08:27;;;;;;;0.40;0.30;;;11.50;99.90;;;;;;4992425;28;20442;-72
2022/02/18 04:10:52;;;;;;;0.40;0.20;;;11.50;99.90;;;;;;4991024;28;20505;-72
2022/02/18 04:13:18;;;;;;;0.40;0.30;;;11.50;99.90;;;;;;4991783;28;20858;-72
2022/02/18 04:15:44;;;;;;;0.40;0.22;;;11.60;99.90;;;;;;4992120;28;20537;-72
2022/02/18 04:18:10;;;;;;;0.40;0.20;;;11.60;99.90;;;;;;4991427;28;20422;-72
2022/02/18 04:20:36;;;;;;;0.40;0.30;;;11.70;99.90;;;;;;4992059;28;20410;-72
2022/02/18 04:23:02;;;;;;;0.40;0.30;;;11.70;99.90;;;;;;4991567;28;20387;-72
2022/02/18 04:25:27;;;;;;;0.40;0.20;;;11.80;99.90;;;;;;4991388;28;20480;-72
2022/02/18 04:27:59;;;;;;;0.40;0.20;;;11.80;99.90;;;;;;4991817;28;20391;-72
2022/02/18 04:30:25;;;;;;;0.40;0.20;;;11.80;99.90;;;;;;4992110;28;20395;-72
2022/02/18 04:32:51;;;;;;;0.40;0.20;;;11.90;99.90;;;;;;4992222;28;20397;-72
2022/02/18 04:35:17;;;;;;;0.40;0.20;;;11.90;99.90;;;;;;4991284;28;20433;-72
2022/02/18 04:37:43;;;;;;;0.40;0.20;;;11.90;99.90;;;;;;4991789;28;20430;-72
2022/02/18 04:40:11;;;;;;;0.40;0.20;;;12.00;99.90;;;;;;4990720;28;20859;-72
2022/02/18 04:42:37;;;;;;;0.40;0.20;;;12.00;99.90;;;;;;4991978;28;20386;-72
2022/02/18 04:45:03;;;;;;;0.40;0.20;;;12.00;99.90;;;;;;4992388;28;20863;-72
2022/02/18 04:47:29;;;;;;;0.40;0.20;;;12.10;99.90;;;;;;4990874;28;20434;-72
2022/02/18 04:49:55;;;;;;;0.40;0.30;;;12.10;99.90;;;;;;4992135;28;20886;-72
2022/02/18 04:52:20;;;;;;;0.40;0.20;;;12.10;99.90;;;;;;4973487;28;20402;-72
2022/02/18 04:54:46;;;;;;;0.40;0.20;;;12.20;99.90;;;;;;4991388;28;20457;-72
2022/02/18 04:57:12;;;;;;;0.40;0.40;;;12.20;99.90;;;;;;4991338;28;20422;-72
2022/02/18 04:59:38;;;;;;;0.40;0.20;;;12.10;99.90;;;;;;4991055;28;20387;-72
2022/02/18 05:02:04;;;;;;;0.40;0.20;;;12.20;99.90;;;;;;4991317;28;20464;-72
2022/02/18 05:04:30;;;;;;;0.40;0.30;;;12.10;99.90;;;;;;4991018;28;20429;-72
2022/02/18 05:06:56;;;;;;;0.40;0.20;;;12.10;99.90;;;;;;4990943;28;20434;-72
2022/02/18 05:09:21;;;;;;;0.40;0.20;;;12.20;99.90;;;;;;4991273;28;20449;-72
2022/02/18 05:11:49;;;;;;;0.40;0.20;;;12.10;99.90;;;;;;4991108;28;20798;-72
2022/02/18 05:14:15;;;;;;;0.40;0.25;;;12.10;99.90;;;;;;4991942;28;20390;-72
2022/02/18 05:16:42;;;;;;;0.40;0.20;;;12.10;99.90;;;;;;4990619;28;20429;-72
2022/02/18 05:19:09;;;;;;;0.40;0.30;;;12.00;99.90;;;;;;4991604;28;20440;-72
2022/02/18 05:21:36;;;;;;;0.40;0.20;;;12.10;99.90;;;;;;4973250;28;20445;-72
2022/02/18 05:24:04;;;;;;;0.40;0.20;;;12.10;99.90;;;;;;4991264;28;20390;-72
2022/02/18 05:26:30;;;;;;;0.40;0.30;;;12.10;99.90;;;;;;4990802;28;20406;-72
2022/02/18 05:28:55;;;;;;;0.40;0.20;;;12.10;99.90;;;;;;4973530;28;20399;-72
2022/02/18 05:31:21;;;;;;;0.40;0.20;;;12.10;99.90;;;;;;4991049;28;20804;-72
2022/02/18 05:33:46;;;;;;;0.40;0.20;;;12.10;99.90;;;;;;4990071;28;20867;-72
2022/02/18 05:36:12;;;;;;;0.40;0.20;;;12.20;99.90;;;;;;4973607;28;20398;-72
2022/02/18 05:38:41;;;;;;;0.40;0.30;;;12.20;99.90;;;;;;4991182;28;20398;-72
2022/02/18 05:41:07;;;;;;;0.40;0.30;;;12.20;99.90;;;;;;4973342;28;20390;-72
2022/02/18 05:43:32;;;;;;;0.40;0.30;;;12.20;99.90;;;;;;4991121;28;20394;-72
2022/02/18 05:45:58;;;;;;;0.40;0.20;;;12.20;99.90;;;;;;4989828;28;20390;-72
2022/02/18 05:48:24;;;;;;;0.40;0.20;;;12.20;99.90;;;;;;4973792;28;20409;-72
2022/02/18 05:50:49;;;;;;;0.40;0.30;;;12.20;99.90;;;;;;4990713;28;20414;-72
2022/02/18 05:53:16;;;;;;;0.40;0.30;;;12.20;99.90;;;;;;4990443;28;20402;-72
2022/02/18 05:55:42;;;;;;;0.40;0.40;;;12.20;99.90;;;;;;4990330;28;20477;-71
2022/02/18 05:58:08;;;;;;;0.40;0.30;;;12.30;99.90;;;;;;4989890;28;21010;-72
2022/02/18 06:00:33;;;;;;;0.40;0.20;;;12.30;99.90;;;;;;4990974;28;20398;-72
2022/02/18 06:02:59;;;;;;;0.40;0.20;;;12.40;99.90;;;;;;5001835;28;20430;-72
2022/02/18 06:05:25;;;;;;;0.40;0.20;;;12.30;99.90;;;;;;4972672;28;20410;-71
2022/02/18 06:07:51;;;;;;;0.40;0.30;;;12.20;99.90;;;;;;4990966;28;20399;-71
2022/02/18 06:10:16;;;;;;;0.40;0.20;;;12.20;99.90;;;;;;4991310;28;20418;-72
2022/02/18 06:12:42;;;;;;;0.40;0.20;;;12.50;99.90;;;;;;4993202;28;20383;-72
2022/02/18 06:15:08;;;;;;;0.40;0.20;;;12.60;99.90;;;;;;4993194;28;20437;-72
2022/02/18 06:17:37;;;;;;;0.40;0.30;;;12.80;99.90;;;;;;4975411;28;20909;-71
2022/02/18 06:20:03;;;;;;;0.40;0.20;;;12.80;99.90;;;;;;4985809;28;20406;-71
2022/02/18 06:22:30;;;;;;;0.40;0.20;;;12.90;99.90;;;;;;4958773;28;20414;-72
2022/02/18 06:24:56;;;;;;;0.40;0.20;;;13.00;99.90;;;;;;4993076;28;20398;-72
2022/02/18 06:27:22;;;;;;;0.40;0.20;;;13.00;99.90;;;;;;4992494;28;20740;-72
2022/02/18 06:29:49;;;;;;;0.40;0.20;;;13.00;99.90;;;;;;4993260;28;20391;-71
2022/02/18 06:32:15;;;;;;;0.40;0.23;;;13.10;99.90;;;;;;4993064;28;20390;-72
2022/02/18 06:34:41;;;;;;;0.40;0.20;;;13.00;99.90;;;;;;4991754;28;20468;-71
2022/02/18 06:37:07;;;;;;;0.40;0.30;;;13.00;99.90;;;;;;4975398;28;20445;-71
2022/02/18 06:39:35;;;;;;;0.40;0.30;;;12.90;99.90;;;;;;4992232;28;20859;-71
2022/02/18 06:42:01;;;;;;;0.40;0.20;;;13.00;99.90;;;;;;4975545;28;20456;-71
2022/02/18 06:44:27;;;;;;;0.40;0.30;;;13.00;99.90;;;;;;4992927;28;20477;-72
2022/02/18 06:46:53;;;;;;;0.40;0.30;;;13.10;99.90;;;;;;4992246;28;20418;-72
2022/02/18 06:49:18;;;;;;;0.40;0.20;;;13.10;99.90;;;;;;4992645;28;20393;-72
2022/02/18 06:51:46;;;;;;;0.40;0.20;;;13.10;99.90;;;;;;4991955;28;20410;-72
2022/02/18 06:54:12;;;;;;;0.40;0.20;;;13.10;99.90;;;;;;4993168;28;20383;-71
2022/02/18 06:56:37;;;;;;;0.40;0.20;;;13.10;99.90;;;;;;4992358;28;20441;-72
2022/02/18 06:59:03;;;;;;;0.40;0.20;;;13.10;99.90;;;;;;4992575;28;20402;-71
2022/02/18 07:01:29;;;;;;;0.40;0.20;;;13.10;99.90;;;;;;4975471;28;20395;-71
2022/02/18 07:03:55;;;;;;;0.40;0.28;;;13.10;99.90;;;;;;4991928;28;20383;-71
2022/02/18 07:06:21;;;;;;;0.40;0.20;;;13.10;99.90;;;;;;4975146;28;21012;-71
2022/02/18 07:08:46;;;;;;;0.40;0.20;;;13.20;99.90;;;;;;4991779;28;20390;-71
2022/02/18 07:11:13;;;;;;;0.40;0.20;;;13.10;99.90;;;;;;4919414;28;2105813;-71
2022/02/18 07:13:38;;;;;;;0.40;0.30;;;13.10;99.90;;;;;;4993647;28;20421;-72
2022/02/18 07:16:05;;;;;;;0.40;0.30;;;13.10;99.90;;;;;;4992879;28;20407;-71
2022/02/18 07:18:30;;;;;;;0.40;0.30;;;13.20;99.90;;;;;;4993787;28;20425;-72
2022/02/18 07:20:56;;;;;;;0.40;0.30;;;13.20;99.90;;;;;;4992823;28;20852;-72
2022/02/18 07:23:22;;;;;;;0.40;0.30;;;13.30;99.90;;;;;;4993197;28;20891;-72
2022/02/18 07:25:48;;;;;;;0.40;0.30;;;13.30;99.90;;;;;;4993420;28;20470;-72
2022/02/18 07:28:17;;;;;;;0.40;0.30;;;13.30;99.90;;;;;;4992173;28;20465;-72
2022/02/18 07:30:43;;;;;;;0.40;0.30;;;13.30;99.90;;;;;;4975629;28;20410;-71
2022/02/18 07:33:09;;;;;;;0.40;0.20;;;13.40;99.90;;;;;;4992507;28;20883;-72
2022/02/18 07:35:35;;;;;;;0.40;0.20;;;13.50;99.90;;;;;;4993605;28;20393;-72
2022/02/18 07:38:04;;;;;;;0.40;0.30;;;13.50;99.90;;;;;;4992892;28;20414;-71
2022/02/18 07:40:30;;;;;;;0.40;0.30;;;13.50;99.90;;;;;;4992339;28;20470;-72
2022/02/18 07:42:56;;;;;;;0.40;0.20;;;13.50;99.90;;;;;;4992592;28;20417;-72
2022/02/18 07:45:22;;;;;;;0.40;0.23;;;13.50;99.90;;;;;;4974964;28;20874;-72
2022/02/18 07:47:55;;;;;;;0.40;0.20;;;13.50;99.90;;;;;;4992022;28;20817;-72
2022/02/18 07:50:22;;;;;;;0.40;0.20;;;13.50;99.90;;;;;;4991798;28;20383;-72
2022/02/18 07:52:48;;;;;;;0.40;0.20;;;13.70;99.90;;;;;;4992444;28;20401;-72
2022/02/18 07:55:13;;;;;;;0.40;0.20;;;13.60;99.90;;;;;;4975367;28;20748;-71
2022/02/18 07:57:39;;;;;;;0.40;0.20;;;13.60;99.90;;;;;;4991746;28;20410;-71
2022/02/18 08:00:06;;;;;;;0.40;0.30;;;13.70;99.90;;;;;;4992872;28;20382;-71
2022/02/18 08:02:32;;;;;;;0.40;0.28;;;13.60;99.90;;;;;;4973369;28;20402;-71
2022/02/18 08:04:58;;;;;;;0.40;0.20;;;13.70;99.90;;;;;;4974459;28;20821;-72
2022/02/18 08:07:23;;;;;;;0.40;0.20;;;13.70;99.90;;;;;;4992518;28;20394;-72
2022/02/18 08:09:49;;;;;;;0.40;0.20;;;13.80;99.90;;;;;;4991370;28;20433;-71
2022/02/18 08:12:15;;;;;;;0.40;0.20;;;13.80;99.90;;;;;;4992129;28;20411;-71
2022/02/18 08:14:42;;;;;;;0.40;0.20;;;13.70;99.90;;;;;;4991621;28;20797;-71
2022/02/18 08:17:08;;;;;;;0.40;0.20;;;13.80;99.90;;;;;;4992696;28;20433;-71
2022/02/18 08:19:34;;;;;;;0.40;0.20;;;13.80;99.90;;;;;;4992496;28;20406;-71
2022/02/18 08:22:03;;;;;;;0.40;0.20;;;13.80;99.90;;;;;;4973821;28;20407;-71
2022/02/18 08:24:31;;;;;;;0.40;0.20;;;13.90;99.90;;;;;;4992327;28;20398;-72
2022/02/18 08:26:58;;;;;;;0.40;0.20;;;14.10;99.90;;;;;;4974074;28;20946;-72
2022/02/18 08:29:24;;;;;;;0.40;0.20;;;14.10;99.90;;;;;;4991713;28;20393;-72
2022/02/18 08:31:55;;;;;;;0.40;0.20;;;14.10;99.90;;;;;;4991129;28;20474;-73
2022/02/18 08:34:22;;;;;;;0.40;0.20;;;14.10;99.90;;;;;;4991917;28;20513;-73
2022/02/18 08:36:49;;;;;;;0.40;0.20;;;14.10;99.90;;;;;;4991362;28;20895;-71
2022/02/18 08:39:15;;;;;;;0.40;0.20;;;14.10;99.90;;;;;;4974375;28;20871;-72
2022/02/18 08:41:41;;;;;;;0.40;0.20;;;14.10;99.90;;;;;;4991832;28;20394;-72
2022/02/18 08:44:07;;;;;;;0.40;0.20;;;14.10;99.90;;;;;;4991169;28;20802;-72
2022/02/18 08:46:34;;;;;;;0.40;0.30;;;14.10;99.90;;;;;;4991756;28;20822;-72
2022/02/18 08:49:00;;;;;;;0.40;0.20;;;14.20;99.90;;;;;;4991201;28;20383;-72
2022/02/18 08:51:27;;;;;;;0.40;0.30;;;14.10;99.90;;;;;;4973477;28;20978;-72
2022/02/18 08:53:53;;;;;;;0.40;0.30;;;14.20;99.90;;;;;;4991652;28;20732;-72
2022/02/18 08:56:19;;;;;;;0.40;0.30;;;14.20;99.90;;;;;;4991087;28;20386;-71
2022/02/18 08:58:45;;;;;;;0.40;0.20;;;14.20;99.90;;;;;;4991566;28;20891;-72
2022/02/18 09:01:11;;;;;;;0.40;0.20;;;14.30;99.70;;;;;;4973904;28;20413;-72
2022/02/18 09:03:38;;;;;;;0.40;0.30;;;14.30;99.70;;;;;;4991052;28;20391;-72
2022/02/18 09:06:04;;;;;;;0.40;0.20;;;14.40;99.70;;;;;;4991573;28;20389;-71
2022/02/18 09:08:32;;;;;;;0.40;0.20;;;14.40;99.80;;;;;;4991140;28;20386;-71
2022/02/18 09:10:57;;;;;;;0.40;0.20;;;14.30;99.60;;;;;;4991522;28;20411;-71
2022/02/18 09:13:25;;;;;;;0.40;0.30;;;14.40;99.50;;;;;;4990793;28;20909;-72
2022/02/18 09:15:52;;;;;;;0.40;0.20;;;14.30;99.40;;;;;;4973672;28;20410;-71
2022/02/18 09:18:19;;;;;;;0.40;0.30;;;14.40;99.30;;;;;;4973044;28;20425;-71
2022/02/18 09:20:45;;;;;;;0.40;0.20;;;14.40;99.40;;;;;;4991486;28;20438;-71
2022/02/18 09:23:11;;;;;;;0.40;0.20;;;14.40;99.40;;;;;;4991382;28;20800;-71
2022/02/18 09:25:37;;;;;;;0.40;0.20;;;14.50;98.80;;;;;;4990700;28;21390;-72
2022/02/18 09:28:03;;;;;;;0.40;0.30;;;14.60;98.70;;;;;;4990989;28;20390;-71
2022/02/18 09:30:30;;;;;;;0.40;0.20;;;14.70;98.60;;;;;;4990757;28;20387;-71
2022/02/18 09:32:57;;;;;;;0.40;0.20;;;14.60;98.50;;;;;;4991263;28;20747;-71
2022/02/18 09:35:25;;;;;;;0.40;0.20;;;14.70;98.70;;;;;;4973702;28;20393;-71
2022/02/18 09:37:51;;;;;;;0.40;0.30;;;14.70;98.60;;;;;;4990698;28;20442;-72
2022/02/18 09:40:19;;;;;;;0.40;0.20;;;14.70;98.60;;;;;;4973849;28;20482;-73
2022/02/18 09:42:47;;;;;;;5.50;0.80;;;14.70;98.40;;;;;;4990745;28;20465;-71
2022/02/18 09:45:13;;;;;;;0.40;0.20;;;14.70;98.30;;;;;;4993172;28;20394;-73
2022/02/18 09:47:43;;;;;;;0.40;0.30;;;14.70;98.10;;;;;;4994483;28;20398;-71
2022/02/18 09:50:10;;;;;;;0.40;0.20;;;14.80;98.20;;;;;;4977482;28;20395;-71
2022/02/18 09:52:36;;;;;;;0.40;0.30;;;14.80;98.20;;;;;;4977609;28;20394;-73
2022/02/18 09:55:04;;;;;;;0.60;0.40;;;14.90;98.00;;;;;;4994214;28;20406;-73
2022/02/18 09:57:31;;;;;;;0.40;0.30;;;14.90;97.70;;;;;;4994084;28;20413;-70
2022/02/18 09:59:57;;;;;;;2.30;0.60;;;15.10;97.80;;;;;;4976610;28;20398;-73
2022/02/18 10:02:23;;;;;;;0.40;0.20;;;15.10;97.70;;;;;;4995081;28;20412;-73
2022/02/18 10:04:49;;;;;;;0.40;0.20;;;15.20;97.10;;;;;;4993977;28;20385;-72
2022/02/18 10:07:14;;;;;;;0.40;0.30;;;15.20;96.70;;;;;;4995019;28;20394;-72
2022/02/18 10:09:45;;;;;;;0.40;0.20;;;15.20;96.80;;;;;;4994622;28;20406;-71
2022/02/18 10:12:12;;;;;;;0.40;0.38;;;15.30;96.70;;;;;;4975971;28;20428;-71
2022/02/18 10:14:58;;;;;;;0.40;0.30;;;15.30;96.70;;;;;;4994648;28;20436;-71
2022/02/18 10:17:38;;;;;;;0.40;0.30;;;15.30;96.40;;;;;;4994632;28;20501;-71
2022/02/18 10:20:17;;;;;;;0.40;0.20;;;15.30;96.30;;;;;;4993920;28;20397;-70
2022/02/18 10:22:59;;;;;;;0.40;0.20;;;15.30;96.30;;;;;;4977128;28;20875;-71
2022/02/18 10:25:26;;;;;;;0.80;0.60;;;15.30;96.20;;;;;;4994545;28;20387;-71
2022/02/18 10:27:53;;;;;;;0.40;0.30;;;15.20;96.30;;;;;;4994809;28;20445;-71
2022/02/18 10:30:25;;;;;;;0.40;0.20;;;15.20;96.10;;;;;;4994012;28;20422;-72
2022/02/18 10:32:52;;;;;;;0.40;0.30;;;15.10;96.30;;;;;;4994503;28;20788;-72
2022/02/18 10:35:21;;;;;;;0.40;0.28;;;15.20;96.20;;;;;;4993301;28;20485;-73
2022/02/18 10:37:50;;;;;;;0.40;0.20;;;15.20;96.00;;;;;;4994209;28;20418;-71
2022/02/18 10:40:18;;;;;;;0.40;0.20;;;15.20;95.90;;;;;;4975962;28;20395;-72
2022/02/18 10:42:46;;;;;;;0.40;0.30;;;15.20;96.00;;;;;;4994310;28;20386;-71
2022/02/18 10:45:14;;;;;;;0.40;0.20;;;15.20;96.00;;;;;;4993603;28;20393;-71
2022/02/18 10:47:41;;;;;;;0.40;0.22;;;15.20;95.80;;;;;;4994122;28;20398;-71
2022/02/18 10:50:22;;;;;;;0.40;0.20;;;15.30;95.90;;;;;;4993717;28;20868;-71
2022/02/18 10:53:15;;;;;;;0.40;0.30;;;15.30;95.90;;;;;;4994113;28;20473;-72
2022/02/18 10:56:08;;;;;;;0.40;0.20;;;15.20;96.00;;;;;;4992959;28;20391;-71
2022/02/18 10:58:39;;;;;;;0.40;0.20;;;15.30;95.90;;;;;;4989795;28;20422;-71
2022/02/18 11:01:19;;;;;;;0.52;0.52;;;15.30;95.80;;;;;;4993319;28;20477;-72
2022/02/18 11:03:50;;;;;;;0.40;0.20;;;15.30;96.00;;;;;;4993068;28;20627;-73
2022/02/18 11:06:24;;;;;;;0.40;0.20;;;15.20;95.90;;;;;;4976152;28;20482;-72
2022/02/18 11:08:54;;;;;;;0.40;0.20;;;15.20;96.20;;;;;;4993277;28;20939;-72
2022/02/18 11:11:22;;;;;;;0.40;0.30;;;15.10;96.20;;;;;;4993820;28;20415;-72
2022/02/18 11:13:50;;;;;;;0.40;0.20;;;15.10;96.20;;;;;;4993112;28;20398;-72
2022/02/18 11:16:20;;;;;;;0.40;0.20;;;15.20;96.50;;;;;;4993589;28;20898;-72
2022/02/18 11:18:46;;;;;;;0.40;0.30;;;15.20;96.80;;;;;;4992431;28;21059;-71
2022/02/18 11:21:14;;;;;;;0.40;0.20;;;15.00;97.00;;;;;;4993601;28;20485;-72
2022/02/18 11:23:43;;;;;;;1.00;1.00;;;15.10;96.80;;;;;;4992252;28;20386;-72
2022/02/18 11:26:19;;;;;;;0.40;0.20;;;14.90;97.10;;;;;;4993717;28;20456;-71
2022/02/18 11:28:46;;;;;;;0.40;0.20;;;14.80;97.40;;;;;;4992703;28;20385;-71
2022/02/18 11:31:23;;;;;;;0.40;0.20;;;14.90;97.30;;;;;;4993014;28;20494;-74
2022/02/18 11:34:16;;;;;;;0.40;0.30;;;14.90;96.60;;;;;;4992492;28;20789;-71
2022/02/18 11:37:33;;;;;;;0.40;0.30;;;14.70;96.80;;;;;;4993038;28;20390;-71
2022/02/18 11:40:28;;;;;;;0.40;0.30;;;14.70;97.20;;;;;;4948613;28;20544;-72
2022/02/18 11:43:06;;;;;;;0.40;0.20;;;14.80;97.10;;;;;;4992304;28;20404;-72
2022/02/18 11:45:32;;;;;;;0.40;0.30;;;14.70;97.20;;;;;;4975528;28;20908;-72
2022/02/18 11:47:58;;;;;;;0.40;0.30;;;14.60;97.50;;;;;;4991749;28;20411;-72
2022/02/18 11:50:32;;;;;;;0.40;0.20;;;14.60;97.60;;;;;;4993025;28;20490;-72
2022/02/18 11:52:58;;;;;;;0.40;0.30;;;14.70;97.60;;;;;;4992863;28;20383;-73
2022/02/18 11:55:34;;;;;;;6.30;0.80;;;14.60;97.60;;;;;;4993229;28;20393;-72
2022/02/18 11:58:16;;;;;;;0.40;0.20;;;14.70;97.80;;;;;;4992738;28;20414;-72
2022/02/18 12:00:42;;;;;;;0.40;0.20;;;14.60;97.70;;;;;;4992736;28;20791;-72
2022/02/18 12:03:18;;;;;;;0.40;0.20;;;14.60;98.10;;;;;;4992033;28;20430;-72
2022/02/18 12:06:23;;;;;;;0.40;0.30;;;14.60;98.20;;;;;;4992640;28;20426;-72
2022/02/18 12:08:53;;;;;;;0.40;0.30;;;14.70;98.00;;;;;;4987296;28;20425;-72
2022/02/18 12:11:22;;;;;;;0.40;0.20;;;14.90;97.60;;;;;;4991589;28;20493;-72
2022/02/18 12:14:05;;;;;;;0.40;0.30;;;15.10;97.30;;;;;;4992330;28;20401;-72
2022/02/18 12:16:32;;;;;;;0.40;0.30;;;15.10;97.30;;;;;;4973995;28;20387;-72
2022/02/18 12:19:13;;;;;;;0.40;0.30;;;15.30;97.10;;;;;;4992578;28;20457;-72
2022/02/18 12:22:00;;;;;;;0.40;0.20;;;15.20;96.80;;;;;;4991323;28;20442;-72
2022/02/18 12:24:53;;;;;;;0.40;0.20;;;15.20;97.10;;;;;;4991049;28;20401;-72
2022/02/18 12:27:37;;;;;;;0.40;0.30;;;15.40;96.60;;;;;;4992629;28;20391;-72
2022/02/18 12:30:21;;;;;;;0.40;0.20;;;15.60;96.30;;;;;;4992465;28;20461;-71
2022/02/18 12:32:52;;;;;;;0.40;0.20;;;15.70;96.30;;;;;;4991361;28;20446;-71
2022/02/18 12:35:24;;;;;;;0.40;0.40;;;15.80;95.70;;;;;;4992081;28;20414;-71
2022/02/18 12:37:50;;;;;;;0.40;0.20;;;15.60;95.70;;;;;;4991513;28;20763;-71
2022/02/18 12:40:17;;;;;;;0.40;0.32;;;15.90;95.60;;;;;;4991541;28;20390;-72
2022/02/18 12:42:44;;;;;;;0.40;0.20;;;15.90;95.10;;;;;;4990785;28;20379;-72
2022/02/18 12:45:11;;;;;;;0.40;0.20;;;15.80;95.10;;;;;;4991150;28;20398;-71
2022/02/18 12:47:39;;;;;;;0.40;0.20;;;16.00;95.20;;;;;;4974315;28;20752;-71
2022/02/18 12:50:08;;;;;;;0.40;0.20;;;16.00;95.00;;;;;;4991270;28;20379;-72
2022/02/18 12:52:35;;;;;;;0.40;0.30;;;16.00;95.00;;;;;;4991330;28;20460;-71